Time;durP1;ratioP1;P1;durP2;ratioP2;P2;SDS_P1;SDS_P2;PMS_P1;PMS_P2;Temp;Humidity;BMP_temperature;BMP_pressure;BME280_temperature;BME280_humidity;BME280_pressure;Samples;Min_cycle;Max_cycle;Signal;HPM_P1;HPM_P2
2022/07/04 00:00:06;;;;;;;;;;;666.40;2432.00;;;;;;5107054;28;19931;-64
2022/07/04 00:02:31;;;;;;;;;;;666.30;2432.00;;;;;;5106927;28;20001;-62
2022/07/04 00:04:57;;;;;;;;;;;666.30;2432.00;;;;;;5107371;28;19950;-65
2022/07/04 00:07:23;;;;;;;;;;;666.20;2432.00;;;;;;5106924;28;19915;-62
2022/07/04 00:09:48;;;;;;;;;;;666.20;2432.00;;;;;;5107445;28;19912;-63
2022/07/04 00:12:14;;;;;;;;;;;666.20;2432.00;;;;;;5096795;28;20401;-67
2022/07/04 00:14:40;;;;;;;;;;;666.20;2432.00;;;;;;5093745;28;20331;-66
2022/07/04 00:17:05;;;;;;;;;;;666.10;2432.00;;;;;;5093396;28;20255;-62
2022/07/04 00:19:31;;;;;;;;;;;666.10;2432.00;;;;;;5093336;28;20380;-66
2022/07/04 00:21:57;;;;;;;;;;;666.00;2432.00;;;;;;5093364;28;19912;-66
2022/07/04 00:24:22;;;;;;;;;;;666.00;2432.00;;;;;;5093095;28;19954;-65
2022/07/04 00:26:48;;;;;;;;;;;665.90;2432.00;;;;;;5093127;28;20374;-61
2022/07/04 00:29:14;;;;;;;;;;;665.80;2432.00;;;;;;5093000;28;19909;-64
2022/07/04 00:31:40;;;;;;;;;;;665.70;2432.00;;;;;;5093342;28;19958;-62
2022/07/04 00:34:05;;;;;;;;;;;665.60;2432.00;;;;;;5093120;28;19908;-66
2022/07/04 00:36:31;;;;;;;;;;;640.90;2432.00;;;;;;5093158;28;19915;-66
2022/07/04 00:38:56;;;;;;;;;;;640.80;2432.00;;;;;;5092733;28;19916;-63
2022/07/04 00:41:22;;;;;;;;;;;640.60;2432.00;;;;;;5092658;28;19956;-61
2022/07/04 00:44:01;;;;;;;;;;;640.60;2432.00;;;;;;5092898;28;19908;-64
2022/07/04 00:46:26;;;;;;;;;;;640.60;2432.00;;;;;;5092694;28;20393;-62
2022/07/04 00:48:52;;;;;;;;;;;640.50;2432.00;;;;;;5092735;28;19908;-61
2022/07/04 00:51:17;;;;;;;;;;;640.50;2432.00;;;;;;5091216;28;19908;-62
2022/07/04 00:53:44;;;;;;;;;;;640.50;2432.00;;;;;;5092702;28;19908;-64
2022/07/04 00:56:09;;;;;;;;;;;640.50;2432.00;;;;;;5092687;28;19908;-63
2022/07/04 00:58:35;;;;;;;;;;;640.50;2432.00;;;;;;5092631;28;19908;-66
2022/07/04 01:01:00;;;;;;;;;;;640.50;2432.00;;;;;;5092149;28;20356;-64
2022/07/04 01:03:26;;;;;;;;;;;640.50;2432.00;;;;;;5092386;28;19908;-66
2022/07/04 01:05:52;;;;;;;;;;;640.60;2432.00;;;;;;5092406;28;20302;-61
2022/07/04 01:08:17;;;;;;;;;;;640.60;2432.00;;;;;;5092452;28;19991;-63
2022/07/04 01:10:43;;;;;;;;;;;640.60;2432.00;;;;;;5092250;28;19908;-61
2022/07/04 01:13:18;;;;;;;;;;;640.40;2432.00;;;;;;5092210;28;19908;-65
2022/07/04 01:15:43;;;;;;;;;;;640.20;2432.00;;;;;;5092216;28;19908;-65
2022/07/04 01:18:09;;;;;;;;;;;640.20;2432.00;;;;;;5092292;28;20388;-65
2022/07/04 01:20:36;;;;;;;;;;;640.20;2432.00;;;;;;5092061;28;19968;-65
2022/07/04 01:23:01;;;;;;;;;;;640.20;2432.00;;;;;;5091085;28;19908;-65
2022/07/04 01:25:27;;;;;;;;;;;640.30;2432.00;;;;;;5092103;28;19912;-66
2022/07/04 01:27:53;;;;;;;;;;;640.40;2432.00;;;;;;5092021;28;19983;-65
2022/07/04 01:30:18;;;;;;;;;;;640.40;2432.00;;;;;;5092044;28;20293;-64
2022/07/04 01:32:44;;;;;;;;;;;640.50;2432.00;;;;;;5091883;28;19914;-63
2022/07/04 01:35:10;;;;;;;;;;;640.50;2432.00;;;;;;5092022;28;20258;-64
2022/07/04 01:37:36;;;;;;;;;;;640.40;2432.00;;;;;;5091886;28;20262;-59
2022/07/04 01:40:02;;;;;;;;;;;640.40;2432.00;;;;;;5091388;28;19916;-63
2022/07/04 01:42:28;;;;;;;;;;;640.50;2432.00;;;;;;5092012;28;19912;-63
2022/07/04 01:44:53;;;;;;;;;;;640.50;2432.00;;;;;;5091755;28;19908;-65
2022/07/04 01:47:19;;;;;;;;;;;640.50;2432.00;;;;;;5091777;28;19912;-64
2022/07/04 01:49:44;;;;;;;;;;;640.40;2432.00;;;;;;5091484;28;19940;-62
2022/07/04 01:52:10;;;;;;;;;;;640.30;2432.00;;;;;;5091604;28;20315;-63
2022/07/04 01:54:35;;;;;;;;;;;640.30;2432.00;;;;;;5091482;28;19947;-63
2022/07/04 01:57:01;;;;;;;;;;;640.20;2432.00;;;;;;5091644;28;19908;-64
2022/07/04 02:02:10;;;;;;;;;;;640.10;2432.00;;;;;;5091697;28;19962;-62
2022/07/04 02:04:36;;;;;;;;;;;640.20;2432.00;;;;;;5091305;28;20342;-63
2022/07/04 02:07:02;;;;;;;;;;;640.20;2432.00;;;;;;5091330;28;20031;-63
2022/07/04 02:09:28;;;;;;;;;;;640.10;2432.00;;;;;;5091229;28;19919;-62
2022/07/04 02:14:40;;;;;;;;;;;640.20;2432.00;;;;;;5091266;28;20065;-63
2022/07/04 02:17:05;;;;;;;;;;;640.00;2432.00;;;;;;5091081;28;20381;-62
2022/07/04 02:19:31;;;;;;;;;;;640.00;2432.00;;;;;;5089920;28;19963;-62
2022/07/04 02:21:56;;;;;;;;;;;640.00;2432.00;;;;;;5090939;28;20376;-66
2022/07/04 02:24:22;;;;;;;;;;;640.00;2432.00;;;;;;5090890;28;19991;-63
2022/07/04 02:26:48;;;;;;;;;;;640.00;2432.00;;;;;;5091247;28;19909;-68
2022/07/04 02:29:13;;;;;;;;;;;615.30;2432.00;;;;;;5090719;28;20433;-65
2022/07/04 02:31:39;;;;;;;;;;;615.30;2432.00;;;;;;5090944;28;19912;-63
2022/07/04 02:34:04;;;;;;;;;;;615.30;2432.00;;;;;;5090775;28;19915;-63
2022/07/04 02:36:30;;;;;;;;;;;615.30;2432.00;;;;;;5090887;28;20349;-59
2022/07/04 02:38:55;;;;;;;;;;;615.30;2432.00;;;;;;5090764;28;19966;-65
2022/07/04 02:41:21;;;;;;;;;;;615.10;2432.00;;;;;;5090839;28;20376;-62
2022/07/04 02:43:46;;;;;;;;;;;615.20;2432.00;;;;;;5090700;28;19912;-64
2022/07/04 02:46:12;;;;;;;;;;;615.30;2432.00;;;;;;5090653;28;19908;-61
2022/07/04 02:48:38;;;;;;;;;;;640.00;2432.00;;;;;;5090753;28;19934;-65
2022/07/04 02:51:03;;;;;;;;;;;640.00;2432.00;;;;;;5090681;28;20366;-66
2022/07/04 02:53:29;;;;;;;;;;;640.00;2432.00;;;;;;5090807;28;19919;-60
2022/07/04 02:55:54;;;;;;;;;;;640.00;2432.00;;;;;;5090533;28;20400;-66
2022/07/04 02:58:20;;;;;;;;;;;640.10;2432.00;;;;;;5090745;28;20372;-59
2022/07/04 03:00:45;;;;;;;;;;;640.10;2432.00;;;;;;5090096;28;20293;-64
2022/07/04 03:03:11;;;;;;;;;;;640.00;2432.00;;;;;;5090520;28;19958;-64
2022/07/04 03:05:36;;;;;;;;;;;640.00;2432.00;;;;;;5090530;28;19908;-65
2022/07/04 03:08:02;;;;;;;;;;;640.00;2432.00;;;;;;5090386;28;20417;-63
2022/07/04 03:10:27;;;;;;;;;;;640.10;2432.00;;;;;;5090672;28;20304;-66
2022/07/04 03:12:53;;;;;;;;;;;640.10;2432.00;;;;;;5090401;28;19908;-60
2022/07/04 03:15:19;;;;;;;;;;;640.20;2432.00;;;;;;5090618;28;19915;-58
2022/07/04 03:17:44;;;;;;;;;;;640.20;2432.00;;;;;;5090454;28;19912;-62
2022/07/04 03:20:10;;;;;;;;;;;640.10;2432.00;;;;;;5090577;28;19961;-59
2022/07/04 03:22:36;;;;;;;;;;;640.10;2432.00;;;;;;5090374;28;19953;-62
2022/07/04 03:25:01;;;;;;;;;;;640.10;2432.00;;;;;;5090510;28;19915;-58
2022/07/04 03:27:27;;;;;;;;;;;640.20;2432.00;;;;;;5090167;28;19912;-58
2022/07/04 03:29:52;;;;;;;;;;;640.20;2432.00;;;;;;5090126;28;20373;-60
2022/07/04 03:32:18;;;;;;;;;;;640.30;2432.00;;;;;;5090576;28;19908;-60
2022/07/04 03:34:43;;;;;;;;;;;640.30;2432.00;;;;;;5090244;28;20350;-62
2022/07/04 03:37:09;;;;;;;;;;;640.30;2432.00;;;;;;5090437;28;19912;-59
2022/07/04 03:39:34;;;;;;;;;;;640.40;2432.00;;;;;;5090182;28;19912;-59
2022/07/04 03:42:00;;;;;;;;;;;640.50;2432.00;;;;;;5090187;28;19908;-60
2022/07/04 03:44:25;;;;;;;;;;;640.60;2432.00;;;;;;5089909;28;19911;-60
2022/07/04 03:46:51;;;;;;;;;;;640.70;2432.00;;;;;;5091761;28;19908;-62
2022/07/04 03:49:17;;;;;;;;;;;640.80;2432.00;;;;;;5094206;28;19973;-58
2022/07/04 03:51:42;;;;;;;;;;;665.60;2432.00;;;;;;5093899;28;20292;-59
2022/07/04 03:54:08;;;;;;;;;;;665.70;2432.00;;;;;;5094073;28;19908;-58
2022/07/04 03:56:33;;;;;;;;;;;665.80;2432.00;;;;;;5093816;28;20369;-59
2022/07/04 03:58:59;;;;;;;;;;;665.90;2432.00;;;;;;5093926;28;19915;-58
2022/07/04 04:01:24;;;;;;;;;;;666.10;2432.00;;;;;;5093347;28;19920;-62
2022/07/04 04:06:34;;;;;;;;;;;666.30;2432.00;;;;;;5093713;28;19934;-58
2022/07/04 04:09:00;;;;;;;;;;;666.50;2432.00;;;;;;5093580;28;19912;-59
2022/07/04 04:11:25;;;;;;;;;;;691.20;2432.00;;;;;;5093384;28;19995;-58
2022/07/04 04:13:51;;;;;;;;;;;666.50;2432.00;;;;;;5093544;28;19914;-61
2022/07/04 04:16:16;;;;;;;;;;;691.30;2432.00;;;;;;5093459;28;20061;-59
2022/07/04 04:18:42;;;;;;;;;;;691.40;2432.00;;;;;;5093350;28;19909;-58
2022/07/04 04:21:08;;;;;;;;;;;691.40;2432.00;;;;;;5093339;28;20384;-60
2022/07/04 04:23:33;;;;;;;;;;;691.60;2432.00;;;;;;5093246;28;19915;-63
2022/07/04 04:25:59;;;;;;;;;;;691.70;2432.00;;;;;;5093343;28;19911;-61
2022/07/04 04:28:24;;;;;;;;;;;691.90;2432.00;;;;;;5093181;28;19983;-61
2022/07/04 04:30:50;;;;;;;;;;;692.10;2432.00;;;;;;5093176;28;19923;-61
2022/07/04 04:33:15;;;;;;;;;;;717.00;2432.00;;;;;;5093056;28;20267;-61
2022/07/04 04:35:41;;;;;;;;;;;717.30;2432.00;;;;;;5092970;28;19944;-61
2022/07/04 04:38:07;;;;;;;;;;;742.90;2432.00;;;;;;5093198;28;19915;-60
2022/07/04 04:40:32;;;;;;;;;;;794.00;2278.40;;;;;;5092390;28;19924;-61
2022/07/04 04:42:58;;;;;;;;;;;794.30;2150.40;;;;;;5092805;28;19909;-62
2022/07/04 04:45:23;;;;;;;;;;;819.30;2099.20;;;;;;5092747;28;19953;-62
2022/07/04 04:47:49;;;;;;;;;;;845.60;1971.20;;;;;;5092758;28;20277;-62
2022/07/04 04:50:14;;;;;;;;;;;870.80;1868.80;;;;;;5092489;28;20311;-60
2022/07/04 04:52:40;;;;;;;;;;;896.40;1740.80;;;;;;5092303;28;19908;-61
2022/07/04 04:55:07;;;;;;;;;;;921.60;1715.20;;;;;;5092588;28;20360;-62
2022/07/04 04:57:32;;;;;;;;;;;922.50;1638.40;;;;;;5092267;28;20419;-62
2022/07/04 04:59:58;;;;;;;;;;;922.10;1638.40;;;;;;5092203;28;20378;-62
2022/07/04 05:02:23;;;;;;;;;;;922.50;1587.20;;;;;;5092598;28;19908;-62
2022/07/04 05:04:49;;;;;;;;;;;948.00;1510.40;;;;;;5092660;28;19947;-65
2022/07/04 05:07:14;;;;;;;;;;;973.00;1536.00;;;;;;5092370;28;20366;-60
2022/07/04 05:09:40;;;;;;;;;;;973.60;1484.80;;;;;;5092469;28;20005;-62
2022/07/04 05:12:06;;;;;;;;;;;973.70;1459.20;;;;;;5091891;28;19915;-63
2022/07/04 05:14:31;;;;;;;;;;;973.60;1433.60;;;;;;5092202;28;19908;-60
2022/07/04 05:16:57;;;;;;;;;;;973.00;1510.40;;;;;;5092365;28;20508;-66
2022/07/04 05:19:22;;;;;;;;;;;922.00;1587.20;;;;;;5091901;28;19908;-58
2022/07/04 05:21:48;;;;;;;;;;;871.20;1638.40;;;;;;5092381;28;19908;-63
2022/07/04 05:24:14;;;;;;;;;;;870.40;1689.60;;;;;;5091942;28;19908;-61
2022/07/04 05:26:39;;;;;;;;;;;845.60;1766.40;;;;;;5092123;28;19958;-60
2022/07/04 05:29:05;;;;;;;;;;;845.20;1817.60;;;;;;5091735;28;19994;-67
2022/07/04 05:31:30;;;;;;;;;;;871.20;1689.60;;;;;;5091925;28;19999;-68
2022/07/04 05:33:57;;;;;;;;;;;896.20;1689.60;;;;;;5091755;28;19930;-66
2022/07/04 05:36:23;;;;;;;;;;;921.60;1638.40;;;;;;5091773;28;19915;-63
2022/07/04 05:38:49;;;;;;;;;;;871.10;1715.20;;;;;;5091835;28;19908;-60
2022/07/04 05:41:14;;;;;;;;;;;845.70;1766.40;;;;;;5091536;28;19979;-67
2022/07/04 05:43:40;;;;;;;;;;;845.10;1843.20;;;;;;5091764;28;19958;-64
2022/07/04 05:46:06;;;;;;;;;;;820.10;1868.80;;;;;;5091870;28;19908;-65
2022/07/04 05:48:31;;;;;;;;;;;819.60;1894.40;;;;;;5091839;28;19909;-63
2022/07/04 05:50:57;;;;;;;;;;;819.30;1920.00;;;;;;5091359;28;20389;-63
2022/07/04 05:53:22;;;;;;;;;;;794.20;1971.20;;;;;;5091220;28;19915;-67
2022/07/04 05:55:48;;;;;;;;;;;793.90;2022.40;;;;;;5091507;28;19908;-66
2022/07/04 05:58:13;;;;;;;;;;;793.90;2022.40;;;;;;5091112;28;19999;-66
2022/07/04 06:00:40;;;;;;;;;;;793.90;2048.00;;;;;;5089820;28;19928;-67
2022/07/04 06:03:06;;;;;;;;;;;793.80;2048.00;;;;;;5091472;28;20369;-66
2022/07/04 06:05:32;;;;;;;;;;;793.60;2073.60;;;;;;5091489;28;20323;-66
2022/07/04 06:07:57;;;;;;;;;;;794.00;2073.60;;;;;;5091266;28;19972;-65
2022/07/04 06:10:23;;;;;;;;;;;794.40;2048.00;;;;;;5090640;28;19999;-66
2022/07/04 06:12:48;;;;;;;;;;;819.60;1971.20;;;;;;5091281;28;20394;-66
2022/07/04 06:15:15;;;;;;;;;;;845.10;1945.60;;;;;;5091055;28;19955;-66
2022/07/04 06:17:41;;;;;;;;;;;870.50;1868.80;;;;;;5091397;28;19969;-61
2022/07/04 06:20:07;;;;;;;;;;;922.00;1689.60;;;;;;5091139;28;20358;-61
2022/07/04 06:22:39;;;;;;;;;;;999.30;1459.20;;;;;;5090873;28;19948;-62
2022/07/04 06:25:05;;;;;;;;;;;1075.50;1356.80;;;;;;5091025;28;19952;-66
2022/07/04 06:27:30;;;;;;;;;;;1024.30;1382.40;;;;;;5091006;28;20366;-66
2022/07/04 06:29:56;;;;;;;;;;;973.70;1433.60;;;;;;5090687;28;19916;-68
2022/07/04 06:32:21;;;;;;;;;;;973.60;1459.20;;;;;;5091131;28;19912;-62
2022/07/04 06:37:31;;;;;;;;;;;1024.90;1331.20;;;;;;5091452;28;19915;-67
2022/07/04 06:39:57;;;;;;;;;;;1024.40;1356.80;;;;;;5090596;28;19920;-67
2022/07/04 06:42:22;;;;;;;;;;;999.10;1382.40;;;;;;5090622;28;19908;-62
2022/07/04 06:44:48;;;;;;;;;;;1075.60;1280.00;;;;;;5090616;28;19948;-65
2022/07/04 06:47:13;;;;;;;;;;;1126.80;1228.80;;;;;;5090722;28;20247;-67
2022/07/04 06:49:39;;;;;;;;;;;1101.30;1228.80;;;;;;5090765;28;20012;-67
2022/07/04 06:52:05;;;;;;;;;;;1101.10;1228.80;;;;;;5090524;28;19908;-66
2022/07/04 06:54:30;;;;;;;;;;;1152.10;1152.00;;;;;;5090696;28;19908;-66
2022/07/04 06:56:56;;;;;;;;;;;1126.50;1203.20;;;;;;5090427;28;19908;-64
2022/07/04 06:59:21;;;;;;;;;;;1075.90;1203.20;;;;;;5090176;28;20794;-67
2022/07/04 07:01:47;;;;;;;;;;;1050.50;1254.40;;;;;;5090324;28;19908;-67
2022/07/04 07:04:13;;;;;;;;;;;1024.40;1331.20;;;;;;5090603;28;19908;-62
2022/07/04 07:06:38;;;;;;;;;;;999.00;1356.80;;;;;;5090627;28;20353;-66
2022/07/04 07:09:04;;;;;;;;;;;999.00;1356.80;;;;;;5090382;28;20017;-66
2022/07/04 07:11:29;;;;;;;;;;;1075.30;1228.80;;;;;;5090727;28;19912;-67
2022/07/04 07:13:55;;;;;;;;;;;1126.40;1203.20;;;;;;5090256;28;19908;-66
2022/07/04 07:16:20;;;;;;;;;;;1152.20;1126.40;;;;;;5090413;28;19908;-62
2022/07/04 07:18:46;;;;;;;;;;;1178.20;1049.60;;;;;;5090143;28;19908;-66
2022/07/04 07:21:11;;;;;;;;;;;1203.60;1049.60;;;;;;5090829;28;19916;-67
2022/07/04 07:23:38;;;;;;;;;;;1203.90;998.40;;;;;;5094372;28;19931;-67
2022/07/04 07:26:03;;;;;;;;;;;1228.90;1024.00;;;;;;5094281;28;20357;-63
2022/07/04 07:28:29;;;;;;;;;;;1229.30;972.80;;;;;;5094275;28;19919;-63
2022/07/04 07:30:54;;;;;;;;;;;1229.20;972.80;;;;;;5094451;28;19916;-67
2022/07/04 07:33:20;;;;;;;;;;;1254.60;947.20;;;;;;5094356;28;19977;-64
2022/07/04 07:35:46;;;;;;;;;;;1255.30;947.20;;;;;;5094022;28;19908;-68
2022/07/04 07:38:11;;;;;;;;;;;1280.70;896.00;;;;;;5094255;28;19908;-62
2022/07/04 07:40:37;;;;;;;;;;;1305.90;870.40;;;;;;5093887;28;19955;-65
2022/07/04 07:43:02;;;;;;;;;;;1306.50;844.80;;;;;;5093977;28;20364;-66
2022/07/04 07:45:28;;;;;;;;;;;1331.90;870.40;;;;;;5094068;28;20334;-65
2022/07/04 07:47:54;;;;;;;;;;;1331.90;870.40;;;;;;5093865;28;19908;-66
2022/07/04 07:50:19;;;;;;;;;;;1356.80;870.40;;;;;;5093952;28;19912;-69
2022/07/04 07:52:45;;;;;;;;;;;1306.50;870.40;;;;;;5093674;28;19912;-65
2022/07/04 07:55:10;;;;;;;;;;;1306.50;870.40;;;;;;5093970;28;19908;-62
2022/07/04 07:57:36;;;;;;;;;;;1306.20;870.40;;;;;;5093850;28;20403;-67
2022/07/04 08:00:03;;;;;;;;;;;1305.60;896.00;;;;;;5093325;28;19974;-68
2022/07/04 08:05:12;;;;;;;;;;;1280.40;921.60;;;;;;5093437;28;19915;-61
2022/07/04 08:07:38;;;;;;;;;;;1229.40;947.20;;;;;;5093633;28;19908;-65
2022/07/04 08:10:04;;;;;;;;;;;1178.30;947.20;;;;;;5093352;28;20372;-68
2022/07/04 08:12:30;;;;;;;;;;;;;;;;;;5093580;28;19912;-60
2022/07/04 08:14:56;;;;;;;;;;;1152.70;972.80;;;;;;5093259;28;20296;-66
2022/07/04 08:17:21;;;;;;;;;;;1126.50;1049.60;;;;;;5093438;28;19915;-65
2022/07/04 08:19:48;;;;;;;;;;;1101.50;1075.20;;;;;;5093092;28;20293;-66
2022/07/04 08:22:13;;;;;;;;;;;1100.80;1126.40;;;;;;5092616;28;19912;-64
2022/07/04 08:24:39;;;;;;;;;;;1075.40;1126.40;;;;;;5093238;28;19912;-66
2022/07/04 08:27:06;;;;;;;;;;;1050.30;1152.00;;;;;;5092893;28;20277;-66
2022/07/04 08:29:32;;;;;;;;;;;1049.70;1177.60;;;;;;5092884;28;20011;-60
2022/07/04 08:31:57;;;;;;;;;;;1024.90;1152.00;;;;;;5092370;28;19950;-59
2022/07/04 08:34:23;;;;;;;;;;;1024.50;1177.60;;;;;;5091307;28;19912;-65
2022/07/04 08:36:49;;;;;;;;;;;1024.30;1203.20;;;;;;5092604;28;19912;-67
2022/07/04 08:39:14;;;;;;;;;;;1024.00;1203.20;;;;;;5092000;28;19912;-61
2022/07/04 08:41:40;;;;;;;;;;;998.80;1254.40;;;;;;5091116;28;19963;-65
2022/07/04 08:44:08;;;;;;;;;;;998.40;1280.00;;;;;;5092302;28;20003;-69
2022/07/04 08:46:35;;;;;;;;;;;998.40;1280.00;;;;;;5091736;28;19918;-69
2022/07/04 08:49:03;;;;;;;;;;;998.40;1254.40;;;;;;5091853;28;19912;-66
2022/07/04 08:51:34;;;;;;;;;;;973.70;1280.00;;;;;;5092226;28;20010;-67
2022/07/04 08:54:01;;;;;;;;;;;973.50;1280.00;;;;;;5092067;28;19970;-61
2022/07/04 08:59:11;;;;;;;;;;;973.50;1280.00;;;;;;5089736;28;20002;-61
2022/07/04 09:01:39;;;;;;;;;;;973.70;1203.20;;;;;;5092054;28;19928;-67
2022/07/04 09:04:05;;;;;;;;;;;973.70;1228.80;;;;;;5091497;28;19920;-67
2022/07/04 09:06:31;;;;;;;;;;;998.60;1280.00;;;;;;5091137;28;19923;-65
2022/07/04 09:08:56;;;;;;;;;;;998.40;1280.00;;;;;;5090978;28;19954;-66
2022/07/04 09:11:22;;;;;;;;;;;972.90;1305.60;;;;;;5092365;28;20827;-69
2022/07/04 09:13:48;;;;;;;;;;;973.20;1254.40;;;;;;5092856;28;20040;-66
2022/07/04 09:16:14;;;;;;;;;;;973.30;1305.60;;;;;;5092239;28;19939;-67
2022/07/04 09:18:39;;;;;;;;;;;973.10;1280.00;;;;;;5092276;28;20470;-66
2022/07/04 09:21:06;;;;;;;;;;;973.20;1305.60;;;;;;5092116;28;19916;-66
2022/07/04 09:23:33;;;;;;;;;;;973.00;1305.60;;;;;;5092117;28;19999;-67
2022/07/04 09:26:10;;;;;;;;;;;973.10;1331.20;;;;;;5091169;28;19908;-68
2022/07/04 09:28:36;;;;;;;;;;;973.30;1331.20;;;;;;5092044;28;19908;-62
2022/07/04 09:31:02;;;;;;;;;;;973.30;1331.20;;;;;;5091913;28;19923;-63
2022/07/04 09:33:44;;;;;;;;;;;973.30;1331.20;;;;;;5091773;28;20403;-65
2022/07/04 09:36:13;;;;;;;;;;;973.20;1331.20;;;;;;5091942;28;19974;-62
2022/07/04 09:38:39;;;;;;;;;;;947.80;1331.20;;;;;;5091833;28;20011;-62
2022/07/04 09:44:10;;;;;;;;;;;922.10;1382.40;;;;;;5091119;28;20366;-62
2022/07/04 09:46:35;;;;;;;;;;;922.00;1382.40;;;;;;5091562;28;19908;-62
2022/07/04 09:49:01;;;;;;;;;;;922.50;1382.40;;;;;;5091748;28;19908;-62
2022/07/04 09:51:35;;;;;;;;;;;947.30;1382.40;;;;;;5091708;28;19994;-67
2022/07/04 09:54:18;;;;;;;;;;;947.60;1382.40;;;;;;5091541;28;19908;-66
2022/07/04 09:56:54;;;;;;;;;;;947.60;1382.40;;;;;;5091227;28;20354;-67
2022/07/04 09:59:21;;;;;;;;;;;948.10;1356.80;;;;;;5091186;28;20003;-65
2022/07/04 10:01:47;;;;;;;;;;;922.50;1356.80;;;;;;5091219;28;19916;-66
2022/07/04 10:04:14;;;;;;;;;;;922.00;1408.00;;;;;;5091418;28;19908;-62
2022/07/04 10:06:40;;;;;;;;;;;922.30;1382.40;;;;;;5091418;28;19990;-61
2022/07/04 10:09:13;;;;;;;;;;;921.90;1382.40;;;;;;5091259;28;19909;-67
2022/07/04 10:11:40;;;;;;;;;;;921.90;1408.00;;;;;;5091442;28;19908;-64
2022/07/04 10:14:06;;;;;;;;;;;922.00;1356.80;;;;;;5091161;28;19908;-67
2022/07/04 10:16:32;;;;;;;;;;;896.80;1356.80;;;;;;5090990;28;20308;-64
2022/07/04 10:18:57;;;;;;;;;;;896.80;1382.40;;;;;;5091170;28;19912;-61
2022/07/04 10:21:23;;;;;;;;;;;921.90;1408.00;;;;;;5091072;28;19916;-67
2022/07/04 10:23:49;;;;;;;;;;;921.60;1408.00;;;;;;5093605;28;20278;-67
2022/07/04 10:26:17;;;;;;;;;;;921.80;1408.00;;;;;;5094954;28;19912;-65
2022/07/04 10:28:44;;;;;;;;;;;922.10;1382.40;;;;;;5099852;28;19908;-61
2022/07/04 10:31:10;;;;;;;;;;;921.70;1408.00;;;;;;5101462;28;19939;-66
2022/07/04 10:33:36;;;;;;;;;;;921.70;1408.00;;;;;;5099961;28;19969;-67
2022/07/04 10:36:01;;;;;;;;;;;896.80;1408.00;;;;;;5100475;28;20350;-67
2022/07/04 10:38:28;;;;;;;;;;;896.70;1408.00;;;;;;5101381;28;20532;-65
2022/07/04 10:40:54;;;;;;;;;;;896.90;1408.00;;;;;;5096524;28;19916;-68
2022/07/04 10:46:20;;;;;;;;;;;896.50;1433.60;;;;;;5096445;28;19915;-65
2022/07/04 10:48:58;;;;;;;;;;;896.60;1433.60;;;;;;5082138;28;19912;-66
2022/07/04 10:51:35;;;;;;;;;;;896.70;1433.60;;;;;;5088936;28;19977;-68
2022/07/04 10:54:02;;;;;;;;;;;896.80;1433.60;;;;;;5089153;28;19912;-67
2022/07/04 10:56:28;;;;;;;;;;;921.60;1459.20;;;;;;5088997;28;19995;-62
2022/07/04 10:58:57;;;;;;;;;;;921.80;1484.80;;;;;;5088880;28;20007;-63
2022/07/04 11:01:23;;;;;;;;;;;921.70;1408.00;;;;;;5088643;28;20404;-63
2022/07/04 11:03:52;;;;;;;;;;;921.60;1433.60;;;;;;5088577;28;19912;-64
2022/07/04 11:06:33;;;;;;;;;;;896.80;1408.00;;;;;;5088983;28;19913;-66
2022/07/04 11:09:17;;;;;;;;;;;896.80;1433.60;;;;;;5088970;28;19908;-63
2022/07/04 11:11:50;;;;;;;;;;;896.70;1382.40;;;;;;5088985;28;19908;-66
2022/07/04 11:14:34;;;;;;;;;;;896.60;1433.60;;;;;;5088842;28;20290;-68
2022/07/04 11:16:59;;;;;;;;;;;896.30;1408.00;;;;;;5088740;28;19908;-68
2022/07/04 11:19:25;;;;;;;;;;;896.40;1433.60;;;;;;5088624;28;19912;-64
2022/07/04 11:21:50;;;;;;;;;;;896.50;1356.80;;;;;;5088889;28;19924;-62
2022/07/04 11:24:17;;;;;;;;;;;896.50;1356.80;;;;;;5088700;28;19912;-66
2022/07/04 11:26:42;;;;;;;;;;;896.30;1356.80;;;;;;5088715;28;19912;-63
2022/07/04 11:29:08;;;;;;;;;;;896.70;1382.40;;;;;;5088283;28;20350;-65
2022/07/04 11:31:37;;;;;;;;;;;896.50;1356.80;;;;;;5088402;28;20246;-68
2022/07/04 11:34:03;;;;;;;;;;;896.30;1382.40;;;;;;5088706;28;19919;-67
2022/07/04 11:36:28;;;;;;;;;;;896.30;1408.00;;;;;;5088712;28;20265;-68
2022/07/04 11:39:02;;;;;;;;;;;896.00;1382.40;;;;;;5088551;28;19916;-65
2022/07/04 11:47:08;;;;;;;;;;;896.00;1382.40;;;;;;5089121;28;20282;-65
2022/07/04 11:49:34;;;;;;;;;;;896.40;1382.40;;;;;;5088474;28;19952;-65
2022/07/04 11:52:00;;;;;;;;;;;896.30;1382.40;;;;;;5088775;28;20126;-62
2022/07/04 11:54:26;;;;;;;;;;;896.00;1356.80;;;;;;5087925;28;20380;-62
2022/07/04 11:56:51;;;;;;;;;;;871.00;1382.40;;;;;;5088593;28;19915;-65
2022/07/04 11:59:17;;;;;;;;;;;870.90;1382.40;;;;;;5088133;28;19931;-66
2022/07/04 12:01:43;;;;;;;;;;;896.10;1433.60;;;;;;5088256;28;19931;-63
2022/07/04 12:04:12;;;;;;;;;;;896.10;1382.40;;;;;;5088709;28;19947;-65
2022/07/04 12:06:38;;;;;;;;;;;896.00;1408.00;;;;;;5088780;28;19914;-65
2022/07/04 12:09:04;;;;;;;;;;;896.40;1408.00;;;;;;5091063;28;19912;-62
2022/07/04 12:11:48;;;;;;;;;;;896.10;1382.40;;;;;;5092186;28;19923;-68
2022/07/04 12:14:14;;;;;;;;;;;871.20;1408.00;;;;;;5091817;28;20011;-62
2022/07/04 12:16:39;;;;;;;;;;;896.10;1408.00;;;;;;5092123;28;20011;-67
2022/07/04 12:19:11;;;;;;;;;;;896.40;1408.00;;;;;;5091858;28;20400;-63
2022/07/04 12:21:36;;;;;;;;;;;896.70;1382.40;;;;;;5091252;28;19951;-64
2022/07/04 12:24:03;;;;;;;;;;;896.40;1382.40;;;;;;5091845;28;19985;-62
2022/07/04 12:26:32;;;;;;;;;;;896.70;1433.60;;;;;;5091788;28;19932;-65
2022/07/04 12:28:57;;;;;;;;;;;896.90;1433.60;;;;;;5091393;28;20007;-64
2022/07/04 12:31:43;;;;;;;;;;;896.90;1408.00;;;;;;5091493;28;20335;-62
2022/07/04 12:34:15;;;;;;;;;;;896.40;1382.40;;;;;;5091301;28;19912;-66
2022/07/04 12:36:51;;;;;;;;;;;896.50;1382.40;;;;;;5091464;28;20348;-67
2022/07/04 12:39:30;;;;;;;;;;;896.00;1408.00;;;;;;5091417;28;19916;-63
2022/07/04 12:42:08;;;;;;;;;;;896.10;1408.00;;;;;;5091513;28;19977;-66
2022/07/04 12:44:34;;;;;;;;;;;871.30;1408.00;;;;;;5091342;28;19967;-68
2022/07/04 12:47:00;;;;;;;;;;;871.10;1408.00;;;;;;5091074;28;20015;-65
2022/07/04 12:49:26;;;;;;;;;;;871.20;1408.00;;;;;;5091255;28;19912;-67
2022/07/04 12:52:02;;;;;;;;;;;896.00;1408.00;;;;;;5091769;28;20357;-62
2022/07/04 12:54:28;;;;;;;;;;;871.30;1433.60;;;;;;5089945;28;19915;-66
2022/07/04 12:57:02;;;;;;;;;;;896.80;1408.00;;;;;;5091064;28;19908;-66
2022/07/04 12:59:28;;;;;;;;;;;896.70;1408.00;;;;;;5090560;28;20365;-66
2022/07/04 13:01:53;;;;;;;;;;;896.50;1356.80;;;;;;5090965;28;19938;-63
2022/07/04 13:04:19;;;;;;;;;;;896.50;1408.00;;;;;;5095024;28;19923;-65
2022/07/04 13:06:44;;;;;;;;;;;896.40;1356.80;;;;;;5094456;28;19908;-68
2022/07/04 13:09:10;;;;;;;;;;;896.40;1382.40;;;;;;5091077;28;20008;-65
2022/07/04 13:14:20;;;;;;;;;;;896.30;1382.40;;;;;;5090828;28;20023;-65
2022/07/04 13:16:46;;;;;;;;;;;896.20;1382.40;;;;;;5090991;28;20386;-68
2022/07/04 13:19:12;;;;;;;;;;;896.00;1382.40;;;;;;5090853;28;19946;-68
2022/07/04 13:21:37;;;;;;;;;;;871.20;1408.00;;;;;;5090826;28;20354;-67
2022/07/04 13:24:03;;;;;;;;;;;896.10;1433.60;;;;;;5090805;28;19970;-63
2022/07/04 13:26:30;;;;;;;;;;;896.40;1433.60;;;;;;5090512;28;20358;-66
2022/07/04 13:28:56;;;;;;;;;;;896.00;1382.40;;;;;;5090499;28;19912;-66
2022/07/04 13:31:22;;;;;;;;;;;871.30;1382.40;;;;;;5090464;28;19916;-67
2022/07/04 13:33:47;;;;;;;;;;;871.30;1408.00;;;;;;5090412;28;20426;-63
2022/07/04 13:36:14;;;;;;;;;;;896.00;1408.00;;;;;;5090362;28;19908;-65
2022/07/04 13:38:40;;;;;;;;;;;871.30;1408.00;;;;;;5090063;28;19938;-66
2022/07/04 13:41:06;;;;;;;;;;;871.30;1382.40;;;;;;5090128;28;19916;-68
2022/07/04 13:43:32;;;;;;;;;;;871.30;1382.40;;;;;;5090233;28;19919;-62
2022/07/04 13:45:57;;;;;;;;;;;896.10;1382.40;;;;;;5090061;28;19915;-63
2022/07/04 13:48:24;;;;;;;;;;;896.20;1356.80;;;;;;5090140;28;19908;-63
2022/07/04 13:50:50;;;;;;;;;;;896.00;1356.80;;;;;;5090145;28;19919;-62
2022/07/04 13:53:15;;;;;;;;;;;871.30;1356.80;;;;;;5089662;28;19909;-63
2022/07/04 13:55:41;;;;;;;;;;;871.10;1382.40;;;;;;5090043;28;19909;-65
2022/07/04 13:58:07;;;;;;;;;;;871.10;1408.00;;;;;;5089653;28;19915;-66
2022/07/04 14:00:33;;;;;;;;;;;871.10;1459.20;;;;;;5089555;28;19924;-62
2022/07/04 14:02:59;;;;;;;;;;;871.30;1459.20;;;;;;5091262;28;19998;-67
2022/07/04 14:05:24;;;;;;;;;;;871.30;1408.00;;;;;;5091328;28;20319;-62